createdAt,value
2019-01-21T05:00:29.706Z,186.30
2019-01-21T05:03:50.283Z,171.80
2019-01-21T05:07:36.070Z,154.10
2019-01-21T05:10:52.854Z,145.17
2019-01-21T05:14:21.672Z,129.47
2019-01-21T05:17:44.002Z,119.30
2019-01-21T05:21:12.477Z,133.10
2019-01-21T05:24:32.174Z,119.70
2019-01-21T05:27:53.184Z,122.53
2019-01-21T05:31:30.607Z,126.77
2019-01-21T05:34:59.807Z,112.33
2019-01-21T05:38:19.277Z,115.63
2019-01-21T05:41:55.951Z,103.33
2019-01-21T05:45:33.327Z,107.87
2019-01-21T05:49:12.985Z,103.03
2019-01-21T05:52:38.015Z,101.20
2019-01-21T05:55:59.791Z,110.57
2019-01-21T06:03:44.450Z,103.03
2019-01-21T06:07:20.127Z,90.53
2019-01-21T06:10:36.386Z,96.57
2019-01-21T06:14:14.910Z,84.77
2019-01-21T06:17:54.928Z,94.63
2019-01-21T06:21:50.776Z,84.00
2019-01-21T06:25:04.280Z,84.70
2019-01-21T06:28:33.600Z,89.17
2019-01-21T06:32:23.563Z,87.50
2019-01-21T06:35:44.055Z,77.13
2019-01-21T06:39:24.919Z,81.83
2019-01-21T06:42:54.049Z,76.60
2019-01-21T06:46:12.895Z,83.50
2019-01-21T06:49:36.784Z,77.37
2019-01-21T06:53:21.358Z,73.27
2019-01-21T06:56:54.010Z,85.93
2019-01-21T07:00:25.817Z,68.17
2019-01-21T07:03:47.144Z,69.20
2019-01-21T07:07:28.686Z,69.47
2019-01-21T07:11:03.663Z,61.97
2019-01-21T07:14:36.277Z,62.50
2019-01-21T07:18:05.422Z,53.30
2019-01-21T07:21:37.656Z,62.87
2019-01-21T07:25:08.742Z,61.97
2019-01-21T07:28:26.421Z,58.83
2019-01-21T07:31:36.646Z,57.93
2019-01-21T07:35:03.677Z,60.53
2019-01-21T07:38:32.663Z,48.93
2019-01-21T07:41:54.256Z,51.50
2019-01-21T07:45:46.377Z,57.57
2019-01-21T07:49:24.956Z,53.33
2019-01-21T07:52:59.255Z,49.83
2019-01-21T07:56:46.368Z,47.43
2019-01-21T08:00:33.107Z,47.77
2019-01-21T08:04:13.619Z,49.63
2019-01-21T08:07:52.847Z,51.10
2019-01-21T08:11:06.623Z,46.17
2019-01-21T08:14:16.771Z,41.57
2019-01-21T08:17:26.553Z,38.23
2019-01-21T08:20:38.122Z,43.93
2019-01-21T08:24:22.035Z,41.90
2019-01-21T08:27:43.322Z,46.20
2019-01-21T08:30:52.884Z,42.70
2019-01-21T08:34:19.957Z,46.77
2019-01-21T08:37:51.409Z,48.37
2019-01-21T08:41:34.416Z,42.27
2019-01-21T08:45:14.101Z,38.57
2019-01-21T08:48:48.645Z,41.90
2019-01-21T08:52:16.989Z,37.97
2019-01-21T08:55:54.478Z,44.00
2019-01-21T08:59:24.341Z,40.03
2019-01-21T09:02:50.160Z,37.50
2019-01-21T09:06:16.471Z,38.80
2019-01-21T09:09:42.543Z,34.07
2019-01-21T09:12:57.699Z,38.87
2019-01-21T09:16:05.219Z,32.70
2019-01-21T09:19:42.447Z,39.43
2019-01-21T09:22:51.252Z,34.03
2019-01-21T09:26:33.758Z,41.10
2019-01-21T09:29:58.250Z,32.17
2019-01-21T09:33:13.754Z,35.87
2019-01-21T09:36:50.994Z,32.13
2019-01-21T09:40:27.309Z,36.07
2019-01-21T09:43:55.377Z,34.27
2019-01-21T09:46:53.061Z,35.67
2019-01-21T09:49:57.403Z,31.17
2019-01-21T09:52:53.795Z,28.67
2019-01-21T09:55:54.247Z,32.00
2019-01-21T09:58:58.768Z,35.00
2019-01-21T10:02:51.418Z,34.27
2019-01-21T10:05:52.690Z,33.77
2019-01-21T10:13:53.391Z,35.97
2019-01-21T10:17:09.038Z,30.60
2019-01-21T10:20:54.849Z,37.67
2019-01-21T10:24:27.022Z,30.50
2019-01-21T10:28:20.498Z,35.07
2019-01-21T10:32:13.092Z,31.50
2019-01-21T10:35:45.005Z,32.20
2019-01-21T10:39:25.759Z,36.63
2019-01-21T10:42:52.909Z,32.00
2019-01-21T10:46:41.691Z,31.90
2019-01-21T10:50:05.035Z,29.20
2019-01-21T10:53:11.848Z,31.10
2019-01-21T10:57:04.448Z,27.27
2019-01-21T11:00:45.683Z,29.77
2019-01-21T11:04:03.542Z,29.70
2019-01-21T11:07:25.837Z,29.70
2019-01-21T11:10:58.624Z,38.50
2019-01-21T11:14:32.101Z,27.80
2019-01-21T11:17:45.036Z,27.50
2019-01-21T11:21:14.397Z,32.57
2019-01-21T11:24:47.533Z,28.23
2019-01-21T11:28:24.569Z,28.57
2019-01-21T11:31:58.406Z,31.50
2019-01-21T11:35:28.359Z,33.00
2019-01-21T11:39:08.707Z,32.17
2019-01-21T11:42:32.338Z,36.30
2019-01-21T11:45:55.871Z,31.83
2019-01-21T11:49:13.972Z,33.17
2019-01-21T11:52:50.368Z,36.70
2019-01-21T11:56:33.206Z,30.10
2019-01-21T11:59:49.050Z,32.50
2019-01-21T12:03:23.324Z,33.63
2019-01-21T12:06:41.261Z,29.70
2019-01-21T12:10:13.470Z,35.90
2019-01-21T12:13:31.875Z,36.27
2019-01-21T12:16:51.675Z,33.57
2019-01-21T12:20:17.156Z,35.97
2019-01-21T12:23:44.027Z,38.87
2019-01-21T12:27:06.335Z,37.40
2019-01-21T12:30:15.104Z,41.47
2019-01-21T12:33:45.355Z,39.80
2019-01-21T12:37:10.897Z,38.87
2019-01-21T12:40:48.919Z,40.20
2019-01-21T12:44:32.328Z,33.93
2019-01-21T12:47:57.006Z,36.03
2019-01-21T12:51:37.654Z,36.27
2019-01-21T12:55:40.784Z,37.30
2019-01-21T12:59:00.675Z,35.23
2019-01-21T13:02:20.041Z,43.43
2019-01-21T13:05:36.977Z,41.80
2019-01-21T13:08:43.326Z,37.33
2019-01-21T13:12:12.642Z,39.60
2019-01-21T13:15:30.334Z,39.07
2019-01-21T13:18:45.960Z,42.17
2019-01-21T13:21:55.148Z,40.00
2019-01-21T13:25:37.767Z,36.20
2019-01-21T13:29:06.687Z,43.73
2019-01-21T13:32:35.456Z,46.43
2019-01-21T13:36:02.773Z,37.40
2019-01-21T13:39:47.878Z,38.93
2019-01-21T13:43:07.761Z,40.70
2019-01-21T13:46:38.743Z,39.43
2019-01-21T13:50:06.186Z,39.73
2019-01-21T13:53:38.880Z,44.43
2019-01-21T13:57:04.041Z,34.43
2019-01-21T14:00:49.647Z,36.23
2019-01-21T14:04:36.292Z,38.40
2019-01-21T14:08:01.771Z,37.43
2019-01-21T14:11:29.362Z,38.33
2019-01-21T14:14:33.748Z,37.47
2019-01-21T14:18:04.723Z,38.33
2019-01-21T14:21:11.568Z,45.67
2019-01-21T14:24:57.384Z,37.47
2019-01-21T14:28:25.750Z,35.03
2019-01-21T14:32:01.394Z,36.40
2019-01-21T14:35:26.245Z,38.33
2019-01-21T14:38:51.665Z,33.33
2019-01-21T14:42:13.311Z,37.17
2019-01-21T14:45:28.562Z,34.40
2019-01-21T14:49:04.624Z,38.43
2019-01-21T14:52:29.637Z,41.90
2019-01-21T14:55:57.591Z,40.13
2019-01-21T14:59:08.122Z,41.43
2019-01-21T15:02:40.648Z,37.43
2019-01-21T15:05:56.656Z,39.17
2019-01-21T15:09:43.219Z,41.83
2019-01-21T15:13:01.338Z,42.30
2019-01-21T15:16:29.258Z,40.07
2019-01-21T15:20:05.281Z,38.60
2019-01-21T15:23:51.410Z,47.70
2019-01-21T15:27:08.155Z,45.60
2019-01-21T15:30:30.770Z,37.30
2019-01-21T15:33:49.306Z,40.80
2019-01-21T15:37:32.820Z,42.37
2019-01-21T15:41:24.887Z,33.67
2019-01-21T15:44:45.009Z,42.33
2019-01-21T15:48:12.132Z,37.90
2019-01-21T15:51:32.073Z,37.13
2019-01-21T15:54:40.431Z,40.83
2019-01-21T15:57:49.671Z,40.53
2019-01-21T16:01:06.075Z,49.20
2019-01-21T16:04:26.513Z,52.27
2019-01-21T16:07:48.504Z,45.27
2019-01-21T16:11:16.186Z,51.63
2019-01-21T16:14:14.865Z,44.00
2019-01-21T16:17:34.232Z,53.37
2019-01-21T16:20:38.860Z,48.23
2019-01-21T16:24:20.036Z,49.10
2019-01-21T16:27:26.806Z,51.93
2019-01-21T16:30:55.349Z,41.70
2019-01-21T16:34:24.867Z,47.13
2019-01-21T16:37:31.100Z,44.30
2019-01-21T16:41:12.676Z,47.07
2019-01-21T16:44:07.313Z,50.13
2019-01-21T16:47:01.994Z,44.50
2019-01-21T16:49:57.363Z,47.67
2019-01-21T16:52:52.082Z,45.13
2019-01-21T16:55:46.696Z,50.53
2019-01-21T16:58:41.522Z,47.03
2019-01-21T17:01:36.349Z,41.47
2019-01-21T17:04:31.000Z,52.70
2019-01-21T17:07:25.432Z,38.60
2019-01-21T17:10:20.030Z,41.10
2019-01-21T17:13:14.378Z,42.17
2019-01-21T17:16:09.095Z,38.57
2019-01-21T17:19:03.492Z,46.03
2019-01-21T17:21:57.947Z,48.33
2019-01-21T17:24:52.678Z,44.83
2019-01-21T17:27:47.300Z,43.90
2019-01-21T17:30:41.527Z,48.17
2019-01-21T17:33:36.056Z,39.17
2019-01-21T17:36:30.352Z,52.63
2019-01-21T17:39:24.759Z,41.63
2019-01-21T17:42:19.411Z,51.63
2019-01-21T17:45:17.237Z,44.87
2019-01-21T17:48:11.806Z,41.00
2019-01-21T17:51:06.629Z,45.90
2019-01-21T17:54:01.759Z,43.10
2019-01-21T17:56:57.211Z,45.93
2019-01-21T17:59:52.400Z,40.50
2019-01-21T18:02:46.804Z,44.87
2019-01-21T18:05:41.773Z,42.30
2019-01-21T18:08:36.421Z,45.87
2019-01-21T18:11:30.867Z,36.17
2019-01-21T18:14:25.110Z,40.40
2019-01-21T18:17:19.630Z,44.20
2019-01-21T18:20:20.337Z,40.50
2019-01-21T18:23:14.779Z,43.20
2019-01-21T18:26:09.394Z,47.23
2019-01-21T18:29:04.037Z,39.93
2019-01-21T18:31:59.667Z,38.73
2019-01-21T18:34:54.292Z,39.63
2019-01-21T18:37:49.014Z,43.37
2019-01-21T18:40:43.903Z,40.13
2019-01-21T18:43:38.522Z,42.03
2019-01-21T18:46:33.580Z,42.37
2019-01-21T18:49:30.233Z,36.70
2019-01-21T18:52:24.544Z,48.20
2019-01-21T18:55:18.785Z,50.53
2019-01-21T18:58:13.254Z,51.03
2019-01-21T19:01:07.660Z,39.03
2019-01-21T19:04:02.188Z,50.77
2019-01-21T19:06:57.206Z,57.90
2019-01-21T19:09:51.900Z,51.00
2019-01-21T19:12:46.479Z,55.23
2019-01-21T19:15:40.996Z,46.20
2019-01-21T19:18:35.430Z,44.57
2019-01-21T19:21:30.138Z,48.33
2019-01-21T19:24:25.017Z,37.53
2019-01-21T19:27:19.535Z,49.10
2019-01-21T19:30:17.527Z,39.93
2019-01-21T19:33:12.505Z,41.50
2019-01-21T19:36:07.423Z,44.93
2019-01-21T19:39:01.834Z,39.00
2019-01-21T19:41:56.435Z,37.93
2019-01-21T19:44:50.802Z,38.00
2019-01-21T19:47:45.645Z,37.37
2019-01-21T19:50:40.535Z,38.23
2019-01-21T19:53:34.968Z,38.77
2019-01-21T19:56:29.967Z,38.90
2019-01-21T19:59:24.513Z,38.50
2019-01-21T20:02:18.758Z,39.23
2019-01-21T20:05:14.064Z,37.10
2019-01-21T20:08:08.799Z,34.20
2019-01-21T20:11:03.117Z,31.23
2019-01-21T20:13:57.910Z,42.83
2019-01-21T20:16:52.190Z,33.20
2019-01-21T20:19:46.835Z,36.30
2019-01-21T20:22:41.467Z,35.87
2019-01-21T20:25:35.974Z,32.83
2019-01-21T20:28:30.611Z,36.93
2019-01-21T20:31:24.916Z,35.93
2019-01-21T20:34:19.400Z,35.43
2019-01-21T20:37:13.641Z,35.30
2019-01-21T20:40:09.603Z,40.50
2019-01-21T20:43:04.115Z,38.23
2019-01-21T20:45:58.381Z,39.57
2019-01-21T20:48:52.847Z,37.50
2019-01-21T20:51:47.429Z,34.70
2019-01-21T20:54:42.136Z,36.47
2019-01-21T20:57:36.607Z,33.93
2019-01-21T21:00:32.481Z,42.80
2019-01-21T21:03:27.026Z,37.17
2019-01-21T21:06:21.732Z,36.13
2019-01-21T21:09:16.439Z,42.27
2019-01-21T21:12:10.616Z,31.20
2019-01-21T21:15:05.076Z,35.83
2019-01-21T21:17:59.342Z,35.10
2019-01-21T21:20:53.965Z,34.83
2019-01-21T21:23:48.094Z,34.80
2019-01-21T21:26:42.490Z,39.93
2019-01-21T21:29:36.787Z,36.70
2019-01-21T21:32:31.158Z,37.10
2019-01-21T21:35:25.687Z,39.13
2019-01-21T21:38:20.151Z,45.13
2019-01-21T21:41:15.587Z,35.77
2019-01-21T21:44:10.034Z,39.90
2019-01-21T21:47:05.354Z,37.40
2019-01-21T21:49:59.793Z,32.10
2019-01-21T21:52:53.978Z,39.40
2019-01-21T21:55:48.382Z,35.00
2019-01-21T21:58:42.638Z,37.90
2019-01-21T22:01:40.165Z,46.37
2019-01-21T22:04:32.806Z,44.97
2019-01-21T22:07:27.284Z,36.73
2019-01-21T22:10:23.304Z,35.27
2019-01-21T22:13:18.157Z,37.60
2019-01-21T22:16:12.813Z,38.67
2019-01-21T22:19:07.248Z,37.50
2019-01-21T22:22:01.406Z,39.80
2019-01-21T22:24:55.538Z,38.20
2019-01-21T22:27:50.229Z,34.33
2019-01-21T22:30:44.466Z,33.33
2019-01-21T22:33:39.578Z,37.00
2019-01-21T22:36:33.810Z,31.43
2019-01-21T22:39:27.993Z,40.47
2019-01-21T22:42:22.430Z,40.67
2019-01-21T22:45:17.545Z,36.87
2019-01-21T22:48:13.612Z,37.63
2019-01-21T22:51:07.742Z,40.03
2019-01-21T22:54:03.461Z,36.90
2019-01-21T22:56:57.648Z,42.73
2019-01-21T22:59:51.979Z,37.40
2019-01-21T23:02:46.240Z,43.73
2019-01-21T23:05:40.675Z,37.97
2019-01-21T23:08:35.226Z,44.33
2019-01-21T23:11:29.924Z,28.70
2019-01-21T23:14:24.607Z,39.33
2019-01-21T23:17:19.142Z,33.00
2019-01-21T23:20:13.549Z,34.43
2019-01-21T23:23:08.080Z,39.47
2019-01-21T23:26:02.318Z,68.50
2019-01-21T23:28:56.601Z,42.87
2019-01-21T23:31:50.756Z,47.33
2019-01-21T23:34:45.327Z,67.37
2019-01-21T23:37:39.761Z,44.03
2019-01-21T23:40:34.881Z,52.30
2019-01-21T23:43:29.405Z,39.97
2019-01-21T23:46:24.424Z,48.73
2019-01-21T23:49:18.712Z,46.80
2019-01-21T23:52:13.423Z,49.67
2019-01-21T23:55:08.959Z,59.93
2019-01-21T23:58:03.356Z,51.07
